Airport View

Enter AWOS ICAO identifier for current METAR.

ex. KFNL

KBAN 191852Z AUTO 24008G16KT 10SM CLR 35/02 A3020 RMK AO2 SLP095 T03500022 $

19 Jun 2019 19:49

Other Area AWOS: KTVL - KMEV - KHTH - KO22

TAF KTVL 191840Z 1919/2018 07008KT P6SM SKC FM192000 20010G20KT P6SM SKC FM200300 19005KT P6SM SKC